AirNav   Pilot Hours Calculator
 
 1642 users online  

33NH Bear Hill Heliport
Henniker, New Hampshire, USA

GOING TO HENNIKER?


FAA INFORMATION EFFECTIVE 02 JANUARY 2020

Location

FAA Identifier: 33NH
Lat/Long: 43-08-39.9000N 071-51-13.0000W
43-08.665000N 071-51.216667W
43.1444167,-71.8536111
(estimated)
Elevation: 864 ft. / 263 m (estimated)
From city: 3 miles SSW of HENNIKER, NH
Time zone: UTC -5 (UTC -4 during Daylight Saving Time)
Zip code: 03242

Heliport Operations

Heliport use: Private use. Permission required prior to landing
Activation date: 12/2015
Control tower: no
ARTCC: BOSTON CENTER
FSS: BANGOR FLIGHT SERVICE STATION
Attendance: UNATNDD
Segmented circle: no

Heliport Communications

WX ASOS at CON (16 nm E): 132.325 (603-224-6558)

Nearby radio navigation aids

VOR radial/distance  VOR name  Freq  Var
CONr265/13.0CONCORD VOR/DME112.9015W
MHTr323/26.9MANCHESTER VOR/DME114.4015W
EENr056/28.5KEENE VORTAC109.4014W
LEBr169/35.7LEBANON VOR/DME113.7015W
GDMr028/37.0GARDNER VOR/DME110.6014W

 
NDB name  Hdg/Dist  Freq  Var  ID
CLAREMONT137/26.323316WCNH -.-. -. ....
HANOVER172/36.327615WLAH .-.. .- ....

Heliport Services

Runway Information

Helipad H1

Dimensions: 24 x 24 ft. / 7 x 7 m
Surface: turf
Traffic pattern: leftleft

Heliport Ownership and Management from official FAA records

Ownership: Privately-owned
Owner: DENNIS ROBERTS
408 BEAR HILL ROAD
HENNIKER, NH 03242
Phone 603-662-5600
Manager: DENNIS ROBERTS
408 BEAR HILL ROAD
HENNIKER, NH 03242
Phone 603-662-5600

Additional Remarks

FOR CD CTC BOSTON APCH AT 603-594-5551.

Instrument Procedures

There are no published instrument procedures at 33NH.

Some nearby airports with instrument procedures:

KCON - Concord Municipal Airport (16 nm E)
2B3 - Parlin Field Airport (21 nm NW)
KAFN - Jaffrey Airport-Silver Ranch (21 nm S)
KMHT - Manchester Airport (22 nm SE)
KEEN - Dillant-Hopkins Airport (24 nm SW)
 
Loc | Ops | Rwys | IFR | FBO | Links
Com | Nav | Svcs | Stats | Notes
Aerial photo
No photo
 
Airport distance calculator
Flying to Bear Hill Heliport? Find the distance to fly.

From to 33NH

Sunrise and sunset
Times for 22-Jan-2020
 Local
(UTC-5)
 Zulu
(UTC)
Morning civil twilight06:4211:42
Sunrise07:1312:13
Sunset16:4521:45
Evening civil twilight17:1622:16

Current date and time
Zulu (UTC)  22-Jan-2020 20:40:50
Local (UTC-5)  22-Jan-2020 15:40:50
 
METAR
KCON 
16nm E 
221951Z AUTO 00000KT 10SM CLR 02/M09 A3035 RMK AO2 SLP284 T00171089
KAFN 
22nm S 
221952Z AUTO 22005KT 10SM CLR 01/M10 A3032 RMK AO2 SLP291 T00061100
KMHT 
22nm SE 
221953Z 00000KT 10SM SCT250 03/M09 A3035 RMK AO2 SLP298 T00281089
KEEN 
24nm SW 
221956Z AUTO 00000KT 10SM CLR 01/M09 A3036 RMK AO2 UPB25E36 SLP293 P0000 T00061094 FZRANO $
KASH 
27nm SE 
221956Z 00000KT 10SM CLR 02/M09 A3037 RMK AO2 SLP293 T00221089
KVSF 
31nm NW 
221954Z AUTO 16004KT 10SM CLR 00/M09 A3035 RMK AO2 SLP287 T00001094
TAF
KCON 
16nm E 
221720Z 2218/2318 VRB03KT P6SM SCT250
NOTAMs
Click for the latest NOTAMs
NOTAMs are issued by the DoD/FAA and will open in a separate window not controlled by AirNav.

 

 
 

Would you like to see your business listed on this page?

 If your business provides an interesting product or service to pilots, flight crews, aircraft, or users of the Bear Hill Heliport, you should consider listing it here.  To start the listing process, click on the button below
 
Add a business
 

Other Pages about Bear Hill Heliport

Update a link
 
Copyright © AirNav, LLC. All rights reserved. Privacy Policy  Contact